CheckWX is a tool to help pilots better visualize weather data.  It is not intended as a substitute for an official pre-flight weather briefing.

19:21:15 UTC

KRYV METAR
Watertown Municipal Airport
Watertown, Wisconsin, USA
Current

26 mins ago

KRYV 161855Z AUTO 00000KT 10SM CLR M01/M12 A3011 RMK AO2 T10151123
Observed
Feb-16 @ 18:55 UTC
Visibility
10 SM
Flight Rules
VFR
Cloud Levels
  • Clear skies
Temperature
-2°C / 28°F
Dewpoint
-12°C / 10°F
Humidity
47%
Altimeter
30.11" Hg
Pressure
1019.62 hPa
Previous

46 mins ago

KRYV 161835Z AUTO 24003KT 10SM SCT050 M02/M11 A3011 RMK AO2 T10211111
Observed
Feb-16 @ 18:35 UTC
Wind
  • 240° at 3 KTS
Visibility
10 SM
Flight Rules
VFR
Cloud Levels
  • Scattered at 5,000' AGL
Temperature
-2°C / 28°F
Dewpoint
-11°C / 12°F
Humidity
51%
Altimeter
30.11" Hg
Pressure
1019.62 hPa
Previous

1 hour ago

KRYV 161815Z AUTO 26003KT 10SM BKN050 M02/M11 A3011 RMK AO2 T10221110
Observed
Feb-16 @ 18:15 UTC
Wind
  • 260° at 3 KTS
Visibility
10 SM
Flight Rules
VFR
Cloud Levels
  • Broken at 5,000' AGL
Temperature
-2°C / 28°F
Dewpoint
-11°C / 12°F
Humidity
51%
Altimeter
30.11" Hg
Pressure
1019.62 hPa